Andover, CT (06232)

6:55 PM EDT on September 03, 2015 (GMT -0400)
Baker Brook/Daria Dr. | | Change Station
CLOSE
Current Station
Personal Weather Station
Location: Bolton, CT
Elevation: 568 ft
Nearby Weather Stations

Elev 568 ft 41.73 °N, 72.42 °W | Updated 6 minutes ago

Partly Cloudy
Partly Cloudy
82.4 °F
Feels Like 87 °F
N
0.0
Wind Variable Wind from East

Today
High -- | Low -- °F
--% Chance of Precip.
Yesterday
High -- | Low -- °F
Precip. -- in
6:17 AM 7:19 PM
Waning Gibbous, 66% visible
Pressure 29.84 in
Visibility 8.0 miles
Clouds Few 6000 ft
Heat Index 87 °F
Dew Point 70 °F
Humidity 67%
Rainfall 0.00 in
Snow Depth Not available.
UV 0 out of 12
Pollen 8.30 out of 12
Air Quality Not available.
Flu Activity Not available.
METAR KIJD 032252Z AUTO 14005KT 8SM FEW060 29/20 A2984 RMK AO2 SLP103 T02890200
Pressure 29.84 in
Visibility 8.0 miles
Clouds Few 6000 ft
Heat Index 87 °F
Dew Point 70 °F
Humidity 67%
Rainfall 0.00 in
Snow Depth Not available.
UV 0 out of 12
Pollen 8.30 out of 12
Air Quality Not available.
Flu Activity Not available.
METAR KIJD 032252Z AUTO 14005KT 8SM FEW060 29/20 A2984 RMK AO2 SLP103 T02890200

10-Day Weather Forecast

×

Almanac

Astronomy

Sep. 03, 2015 Rise Set
Actual Time
Civil Twilight
Nautical Twilight
Astronomical Twilight
Moon
Length of Visible Light
Length of Day
Tomorrow will be .
, % of the Moon is Illuminated

Today's Extremes

State Highs State Lows

Community

WunderPhotos

Upload Photos

1,852,049 photos uploaded!

WunderBlogs® & News

Nearby

Air Quality

  Air Quality AQ Index Pollutant
Not available.

Snow Depth

Station Depth Elevation

Earthquake Activity

City Distance Mag. Time & Date
Minimum magnitude displayed is 2.5.

Coastal Water Temperatures

Place Temperature

Stations

Nearby Weather Stations

Station Location Temp. Windchill Dew Point Humidity Wind Precip. Elev Updated Type